createdAt,value
2023-03-30T00:01:42.185Z,97608.22
2023-03-30T00:04:12.351Z,97607.50
2023-03-30T00:06:43.014Z,97599.72
2023-03-30T00:09:12.248Z,97599.97
2023-03-30T00:11:40.754Z,97589.69
2023-03-30T00:14:07.226Z,97604.97
2023-03-30T00:16:33.734Z,97597.72
2023-03-30T00:19:00.512Z,97602.16
2023-03-30T00:21:28.107Z,97599.09
2023-03-30T00:23:54.696Z,97577.00
2023-03-30T00:26:21.370Z,97593.50
2023-03-30T00:28:47.848Z,97586.16
2023-03-30T00:31:14.344Z,97586.88
2023-03-30T00:33:47.140Z,97568.88
2023-03-30T00:36:15.661Z,97570.75
2023-03-30T00:38:42.352Z,97569.59
2023-03-30T00:41:09.324Z,97565.28
2023-03-30T00:43:54.745Z,97567.25
2023-03-30T00:46:22.758Z,97559.34
2023-03-30T00:48:49.380Z,97549.75
2023-03-30T00:51:16.340Z,97542.03
2023-03-30T00:53:47.704Z,97543.69
2023-03-30T00:56:17.618Z,97553.25
2023-03-30T00:58:44.962Z,97571.19
2023-03-30T01:01:15.111Z,97559.31
2023-03-30T01:03:47.949Z,97562.09
2023-03-30T01:06:17.980Z,97553.69
2023-03-30T01:08:45.273Z,97558.34
2023-03-30T01:11:14.220Z,97546.88
2023-03-30T01:13:45.494Z,97538.53
2023-03-30T01:16:38.430Z,97546.47
2023-03-30T01:19:45.995Z,97547.97
2023-03-30T01:22:18.302Z,97541.09
2023-03-30T01:25:03.716Z,97537.97
2023-03-30T01:27:48.410Z,97533.34
2023-03-30T01:30:48.615Z,97526.78
2023-03-30T01:33:47.480Z,97532.25
2023-03-30T01:36:50.264Z,97519.50
2023-03-30T01:39:28.992Z,97506.09
2023-03-30T01:42:17.399Z,97514.84
2023-03-30T01:44:54.368Z,97522.75
2023-03-30T01:47:45.354Z,97527.59
2023-03-30T01:50:19.444Z,97526.88
2023-03-30T01:53:01.347Z,97526.88
2023-03-30T01:55:41.533Z,97513.47
2023-03-30T01:58:15.802Z,97523.94
2023-03-30T02:00:51.907Z,97580.38
2023-03-30T02:03:28.438Z,97701.69
2023-03-30T02:06:03.871Z,97717.66
2023-03-30T02:08:33.691Z,97640.34
2023-03-30T02:11:00.476Z,97632.34
2023-03-30T02:13:30.054Z,97616.25
2023-03-30T02:16:02.715Z,97622.50
2023-03-30T02:18:29.335Z,97643.16
2023-03-30T02:20:58.938Z,97640.84
2023-03-30T02:23:30.517Z,97639.88
2023-03-30T02:25:57.769Z,97636.06
2023-03-30T02:28:24.241Z,97644.75
2023-03-30T02:30:50.762Z,97660.28
2023-03-30T02:33:34.862Z,97666.56
2023-03-30T02:36:28.980Z,97657.31
2023-03-30T02:39:33.764Z,97674.56
2023-03-30T02:42:30.178Z,97686.81
2023-03-30T02:45:24.017Z,97692.13
2023-03-30T02:47:53.242Z,97703.66
2023-03-30T02:50:32.193Z,97709.03
2023-03-30T02:53:34.294Z,97713.75
2023-03-30T02:56:06.694Z,97712.34
2023-03-30T02:58:33.131Z,97723.47
2023-03-30T03:01:37.620Z,97722.50
2023-03-30T03:04:06.766Z,97721.28
2023-03-30T03:06:33.328Z,97718.06
2023-03-30T03:09:00.359Z,97726.97
2023-03-30T03:11:27.157Z,97729.50
2023-03-30T03:13:53.782Z,97738.16
2023-03-30T03:16:20.560Z,97743.53
2023-03-30T03:18:47.124Z,97760.66
2023-03-30T03:21:14.144Z,97765.00
2023-03-30T03:23:41.202Z,97793.78
2023-03-30T03:26:08.665Z,97789.28
2023-03-30T03:28:35.909Z,97776.75
2023-03-30T03:31:03.695Z,97781.06
2023-03-30T03:33:33.436Z,97793.19
2023-03-30T03:36:00.398Z,97811.69
2023-03-30T03:38:27.372Z,97818.88
2023-03-30T03:40:56.305Z,97824.38
2023-03-30T03:43:23.213Z,97815.94
2023-03-30T03:45:54.594Z,97823.56
2023-03-30T03:48:24.928Z,97827.88
2023-03-30T03:50:58.865Z,97834.41
2023-03-30T03:53:27.604Z,97838.97
2023-03-30T03:55:54.747Z,97842.00
2023-03-30T03:58:25.049Z,97834.00
2023-03-30T04:01:02.372Z,97826.63
2023-03-30T04:03:29.099Z,97839.56
2023-03-30T04:05:59.016Z,97833.63
2023-03-30T04:08:25.757Z,97827.44
2023-03-30T04:10:53.561Z,97821.47
2023-03-30T04:13:20.082Z,97821.28
2023-03-30T04:15:46.514Z,97825.59
2023-03-30T04:18:12.994Z,97823.53
2023-03-30T04:20:39.539Z,97816.97
2023-03-30T04:23:05.965Z,97834.00
2023-03-30T04:25:32.520Z,97827.22
2023-03-30T04:27:59.066Z,97823.09
2023-03-30T04:30:25.615Z,97822.72
2023-03-30T04:33:02.891Z,97810.38
2023-03-30T04:35:34.318Z,97814.09
2023-03-30T04:38:02.528Z,97812.03
2023-03-30T04:40:29.650Z,97812.03
2023-03-30T04:43:02.180Z,97805.03
2023-03-30T04:45:31.996Z,97798.28
2023-03-30T04:47:58.693Z,97809.97
2023-03-30T04:50:25.430Z,97818.56
2023-03-30T04:52:54.568Z,97821.81
2023-03-30T04:55:21.061Z,97826.50
2023-03-30T04:57:47.480Z,97836.94
2023-03-30T05:00:14.439Z,97837.72
2023-03-30T05:02:41.072Z,97835.59
2023-03-30T05:05:08.132Z,97839.34
2023-03-30T05:07:34.591Z,97827.97
2023-03-30T05:10:01.007Z,97836.09
2023-03-30T05:12:27.602Z,97843.59
2023-03-30T05:14:57.062Z,97839.69
2023-03-30T05:17:26.641Z,97839.72
2023-03-30T05:19:56.992Z,97833.56
2023-03-30T05:22:27.022Z,97839.50
2023-03-30T05:24:56.746Z,97841.22
2023-03-30T05:27:24.390Z,97844.44
2023-03-30T05:29:50.994Z,97838.63
2023-03-30T05:32:17.421Z,97846.03
2023-03-30T05:34:43.837Z,97837.06
2023-03-30T05:37:10.869Z,97838.25
2023-03-30T05:39:37.868Z,97861.47
2023-03-30T05:42:05.531Z,97856.03
2023-03-30T05:44:31.972Z,97865.31
2023-03-30T05:46:58.461Z,97860.44
2023-03-30T05:49:25.159Z,97860.19
2023-03-30T05:51:52.535Z,97861.72
2023-03-30T05:54:19.439Z,97868.41
2023-03-30T05:56:45.909Z,97867.34
2023-03-30T05:59:13.041Z,97879.31
2023-03-30T06:01:40.152Z,97880.19
2023-03-30T06:04:07.952Z,97879.56
2023-03-30T06:06:34.464Z,97880.19
2023-03-30T06:09:02.688Z,97893.25
2023-03-30T06:11:29.417Z,97901.44
2023-03-30T06:13:56.143Z,97878.00
2023-03-30T06:16:26.477Z,97900.63
2023-03-30T06:18:56.134Z,97911.09
2023-03-30T06:21:25.181Z,97910.34
2023-03-30T06:23:56.892Z,97903.59
2023-03-30T06:26:26.413Z,97907.97
2023-03-30T06:28:54.663Z,97900.78
2023-03-30T06:31:21.337Z,97909.41
2023-03-30T06:33:47.887Z,97916.41
2023-03-30T06:36:14.729Z,97915.59
2023-03-30T06:38:43.579Z,97906.97
2023-03-30T06:41:11.978Z,97900.81
2023-03-30T06:43:39.122Z,97917.47
2023-03-30T06:46:07.123Z,97927.16
2023-03-30T06:48:33.733Z,97916.06
2023-03-30T06:51:00.462Z,97914.84
2023-03-30T06:53:27.053Z,97906.19
2023-03-30T06:55:58.663Z,97917.13
2023-03-30T06:58:27.298Z,97920.84
2023-03-30T07:00:57.151Z,97935.22
2023-03-30T07:03:24.747Z,97941.59
2023-03-30T07:05:56.029Z,97936.66
2023-03-30T07:08:24.998Z,97951.03
2023-03-30T07:10:56.070Z,97952.44
2023-03-30T07:13:27.470Z,97953.91
2023-03-30T07:15:54.537Z,97951.84
2023-03-30T07:18:21.078Z,97963.78
2023-03-30T07:20:47.714Z,97964.63
2023-03-30T07:23:14.880Z,97971.78
2023-03-30T07:25:42.051Z,97968.91
2023-03-30T07:28:08.618Z,97971.16
2023-03-30T07:30:35.663Z,97971.78
2023-03-30T07:33:02.761Z,97986.78
2023-03-30T07:35:29.400Z,97992.53
2023-03-30T07:38:02.965Z,98005.69
2023-03-30T07:40:31.720Z,98002.59
2023-03-30T07:42:59.096Z,98002.59
2023-03-30T07:45:26.419Z,98000.53
2023-03-30T07:47:57.967Z,98008.16
2023-03-30T07:50:25.675Z,97999.34
2023-03-30T07:52:56.493Z,98009.78
2023-03-30T07:55:28.829Z,98021.06
2023-03-30T07:57:56.331Z,98026.66
2023-03-30T08:00:27.266Z,98029.91
2023-03-30T08:02:57.436Z,98021.72
2023-03-30T08:05:27.170Z,98039.22
2023-03-30T08:07:58.929Z,98035.13
2023-03-30T08:10:25.912Z,98037.78
2023-03-30T08:12:54.356Z,98041.47
2023-03-30T08:15:20.862Z,98051.97
2023-03-30T08:17:47.842Z,98039.00
2023-03-30T08:20:14.992Z,98041.88
2023-03-30T08:22:41.878Z,98057.31
2023-03-30T08:25:12.029Z,98054.22
2023-03-30T08:27:41.332Z,98034.84
2023-03-30T08:30:09.021Z,98031.78
2023-03-30T08:32:36.163Z,98043.38
2023-03-30T08:35:05.874Z,98042.31
2023-03-30T08:37:32.850Z,98038.00
2023-03-30T08:39:59.324Z,98048.31
2023-03-30T08:42:55.868Z,98049.75
2023-03-30T08:45:25.821Z,98044.63
2023-03-30T08:47:54.831Z,98052.25
2023-03-30T08:50:33.201Z,98050.41
2023-03-30T08:53:00.313Z,98060.06
2023-03-30T08:55:36.260Z,98052.47
2023-03-30T08:58:14.792Z,98046.69
2023-03-30T09:01:04.975Z,98042.78
2023-03-30T09:03:49.904Z,98056.16
2023-03-30T09:06:45.970Z,98075.09
2023-03-30T09:09:15.701Z,98076.97
2023-03-30T09:11:43.242Z,98074.31
2023-03-30T09:14:19.666Z,98087.50
2023-03-30T09:16:57.253Z,98086.44
2023-03-30T09:19:33.059Z,98097.16
2023-03-30T09:22:05.900Z,98088.94
2023-03-30T09:24:32.452Z,98088.72
2023-03-30T09:27:08.224Z,98086.44
2023-03-30T09:29:43.667Z,98100.22
2023-03-30T09:32:33.111Z,98084.78
2023-03-30T09:35:12.164Z,98089.13
2023-03-30T09:37:38.645Z,98073.69
2023-03-30T09:40:43.583Z,98112.19
2023-03-30T09:43:16.381Z,98117.50
2023-03-30T09:45:45.297Z,98122.06
2023-03-30T09:48:11.806Z,98122.28
2023-03-30T09:50:48.586Z,98110.94
2023-03-30T09:53:29.577Z,98135.25
2023-03-30T09:56:11.251Z,98112.81
2023-03-30T09:58:38.352Z,98134.63
2023-03-30T10:01:18.376Z,98130.69
2023-03-30T10:04:05.118Z,98134.41
2023-03-30T10:06:39.026Z,98144.69
2023-03-30T10:09:12.108Z,98131.13
2023-03-30T10:11:45.979Z,98139.78
2023-03-30T10:14:29.714Z,98132.94
2023-03-30T10:16:57.964Z,98124.88
2023-03-30T10:19:25.323Z,98136.59
2023-03-30T10:21:59.518Z,98093.69
2023-03-30T10:24:29.495Z,98132.56
2023-03-30T10:26:59.817Z,98141.78
2023-03-30T10:29:28.512Z,98132.56
2023-03-30T10:32:27.099Z,98127.53
2023-03-30T10:35:01.752Z,98127.38
2023-03-30T10:37:36.242Z,98133.09
2023-03-30T10:40:14.817Z,98132.47
2023-03-30T10:42:41.620Z,98129.94
2023-03-30T10:45:19.148Z,98124.00
2023-03-30T10:48:13.674Z,98132.06
2023-03-30T10:50:43.753Z,98125.44
2023-03-30T10:53:47.710Z,98125.25
2023-03-30T10:56:29.444Z,98113.72
2023-03-30T10:59:14.418Z,98119.91
2023-03-30T11:01:48.232Z,98115.16
2023-03-30T11:04:43.258Z,98124.47
2023-03-30T11:07:18.249Z,98115.16
2023-03-30T11:09:56.685Z,98120.78
2023-03-30T11:12:34.218Z,98126.44
2023-03-30T11:15:17.856Z,98126.72
2023-03-30T11:17:55.836Z,98128.88
2023-03-30T11:20:30.604Z,98133.84
2023-03-30T11:23:27.668Z,98130.31
2023-03-30T11:26:06.961Z,98130.47
2023-03-30T11:28:42.887Z,98122.81
2023-03-30T11:31:40.269Z,98109.22
2023-03-30T11:34:35.707Z,98119.94
2023-03-30T11:37:21.085Z,98124.88
2023-03-30T11:39:58.697Z,98102.00
2023-03-30T11:42:30.415Z,98119.94
2023-03-30T11:44:57.745Z,98120.25
2023-03-30T11:47:48.935Z,98112.44
2023-03-30T11:50:27.445Z,98109.75
2023-03-30T11:53:16.238Z,98119.16
2023-03-30T11:55:49.316Z,98110.75
2023-03-30T11:58:43.782Z,98110.09
2023-03-30T12:01:33.987Z,98120.53
2023-03-30T12:04:09.770Z,98125.09
2023-03-30T12:06:42.020Z,98116.81
2023-03-30T12:09:38.815Z,98127.53
2023-03-30T12:12:15.723Z,98121.88
2023-03-30T12:15:12.161Z,98122.81
2023-03-30T12:18:01.200Z,98126.22
2023-03-30T12:20:39.470Z,98120.19
2023-03-30T12:23:24.737Z,98120.28
2023-03-30T12:26:16.346Z,98116.56
2023-03-30T12:31:51.308Z,98116.06
2023-03-30T12:34:18.362Z,98110.66
2023-03-30T12:36:49.266Z,98107.41
2023-03-30T12:39:31.108Z,98107.84
2023-03-30T12:42:07.033Z,98112.22
2023-03-30T12:44:49.711Z,98100.06
2023-03-30T12:47:33.646Z,98101.03
2023-03-30T12:50:28.060Z,98104.56
2023-03-30T12:53:09.622Z,98106.22
2023-03-30T12:55:39.042Z,98101.28
2023-03-30T12:58:31.635Z,98082.72
2023-03-30T13:01:28.619Z,98099.84
2023-03-30T13:04:05.306Z,98091.63
2023-03-30T13:06:35.083Z,98084.41
2023-03-30T13:09:19.470Z,98088.19
2023-03-30T13:11:50.189Z,98085.88
2023-03-30T13:14:34.022Z,98088.75
2023-03-30T13:17:00.861Z,98081.59
2023-03-30T13:19:32.913Z,98068.91
2023-03-30T13:22:11.430Z,98076.53
2023-03-30T13:25:28.069Z,98067.41
2023-03-30T13:27:58.363Z,98050.28
2023-03-30T13:30:29.309Z,98070.66
2023-03-30T13:33:19.047Z,98057.13
2023-03-30T13:35:57.154Z,98053.16
2023-03-30T13:38:29.639Z,98053.94
2023-03-30T13:41:08.828Z,98058.19
2023-03-30T13:43:56.630Z,98047.44
2023-03-30T13:46:35.735Z,98052.22
2023-03-30T13:49:12.004Z,98048.63
2023-03-30T13:51:42.836Z,98045.53
2023-03-30T13:54:20.826Z,98032.25
2023-03-30T13:56:58.826Z,98037.34
2023-03-30T13:59:31.471Z,98023.53
2023-03-30T14:02:01.603Z,98030.44
2023-03-30T14:04:33.366Z,98025.78
2023-03-30T14:07:25.293Z,98002.84
2023-03-30T14:10:15.591Z,98019.56
2023-03-30T14:12:43.076Z,98001.66
2023-03-30T14:15:22.168Z,98014.22
2023-03-30T14:17:55.951Z,98003.09
2023-03-30T14:20:37.107Z,97983.69
2023-03-30T14:23:04.838Z,97987.13
2023-03-30T14:25:40.565Z,97999.72
2023-03-30T14:28:14.696Z,97985.78
2023-03-30T14:30:53.293Z,97961.09
2023-03-30T14:33:20.421Z,97964.72
2023-03-30T14:35:50.074Z,97961.66
2023-03-30T14:38:37.808Z,97960.00
2023-03-30T14:41:14.917Z,97959.09
2023-03-30T14:43:44.094Z,97955.28
2023-03-30T14:46:12.481Z,97975.50
2023-03-30T14:48:43.186Z,97963.47
2023-03-30T14:51:41.828Z,97951.97
2023-03-30T14:54:15.057Z,97959.91
2023-03-30T14:56:45.150Z,97956.44
2023-03-30T14:59:16.553Z,97950.56
2023-03-30T15:01:44.093Z,97931.84
2023-03-30T15:04:15.416Z,97941.91
2023-03-30T15:06:43.849Z,97932.88
2023-03-30T15:09:17.447Z,97948.91
2023-03-30T15:11:47.604Z,97937.81
2023-03-30T15:14:21.431Z,97933.84
2023-03-30T15:16:53.772Z,97918.81
2023-03-30T15:19:31.892Z,97935.75
2023-03-30T15:22:03.478Z,97931.56
2023-03-30T15:24:35.994Z,97939.53
2023-03-30T15:27:05.863Z,97918.53
2023-03-30T15:29:33.371Z,97921.38
2023-03-30T15:32:01.295Z,97920.38
2023-03-30T15:34:31.174Z,97923.16
2023-03-30T15:36:57.808Z,97907.53
2023-03-30T15:39:36.497Z,97897.84
2023-03-30T15:42:05.310Z,97907.22
2023-03-30T15:44:41.173Z,97903.66
2023-03-30T15:47:17.366Z,97899.19
2023-03-30T15:49:48.571Z,97906.78
2023-03-30T15:52:35.785Z,97908.13
2023-03-30T15:55:07.717Z,97904.25
2023-03-30T15:57:36.567Z,97896.94
2023-03-30T16:00:14.701Z,97897.03
2023-03-30T16:02:47.719Z,97883.09
2023-03-30T16:05:22.705Z,97900.94
2023-03-30T16:07:49.644Z,97888.44
2023-03-30T16:10:20.914Z,97888.06
2023-03-30T16:12:48.593Z,97881.44
2023-03-30T16:15:17.798Z,97871.91
2023-03-30T16:17:44.729Z,97867.19
2023-03-30T16:20:21.655Z,97870.59
2023-03-30T16:22:48.775Z,97875.50
2023-03-30T16:25:17.385Z,97863.25
2023-03-30T16:27:44.339Z,97864.13
2023-03-30T16:30:33.993Z,97874.91
2023-03-30T16:33:01.579Z,97881.09
2023-03-30T16:35:28.377Z,97878.69
2023-03-30T16:37:59.308Z,97871.34
2023-03-30T16:40:40.847Z,97870.38
2023-03-30T16:43:08.889Z,97874.13
2023-03-30T16:45:35.537Z,97862.63
2023-03-30T16:48:02.190Z,97861.84
2023-03-30T16:50:53.535Z,97855.09
2023-03-30T16:53:20.331Z,97860.31
2023-03-30T16:55:48.820Z,97837.28
2023-03-30T16:58:16.389Z,97848.94
2023-03-30T17:00:46.598Z,97849.56
2023-03-30T17:03:13.497Z,97841.97
2023-03-30T17:05:40.489Z,97847.72
2023-03-30T17:08:23.599Z,97853.97
2023-03-30T17:10:52.021Z,97846.22
2023-03-30T17:13:18.800Z,97842.50
2023-03-30T17:15:45.556Z,97854.31
2023-03-30T17:18:21.466Z,97850.59
2023-03-30T17:20:53.244Z,97845.25
2023-03-30T17:23:21.522Z,97841.38
2023-03-30T17:25:49.432Z,97846.13
2023-03-30T17:28:38.924Z,97844.06
2023-03-30T17:31:11.952Z,97839.78
2023-03-30T17:33:38.760Z,97834.66
2023-03-30T17:36:12.688Z,97846.19
2023-03-30T17:38:41.001Z,97835.09
2023-03-30T17:41:12.146Z,97848.66
2023-03-30T17:43:43.400Z,97860.78
2023-03-30T17:46:13.057Z,97851.34
2023-03-30T17:48:43.132Z,97844.75
2023-03-30T17:51:10.028Z,97835.50
2023-03-30T17:53:36.971Z,97846.00
2023-03-30T17:56:03.701Z,97845.38
2023-03-30T17:58:34.082Z,97836.56
2023-03-30T18:01:03.373Z,97818.88
2023-03-30T18:03:30.373Z,97813.13
2023-03-30T18:06:00.141Z,97821.31
2023-03-30T18:08:29.712Z,97807.34
2023-03-30T18:11:00.689Z,97819.28
2023-03-30T18:13:29.690Z,97812.09
2023-03-30T18:16:00.682Z,97786.00
2023-03-30T18:18:31.173Z,97818.88
2023-03-30T18:21:04.422Z,97822.94
2023-03-30T18:23:33.894Z,97810.84
2023-03-30T18:26:01.598Z,97811.88
2023-03-30T18:28:31.638Z,97803.25
2023-03-30T18:31:00.516Z,97793.38
2023-03-30T18:33:28.490Z,97803.84
2023-03-30T18:36:04.583Z,97816.00
2023-03-30T18:38:33.245Z,97795.22
2023-03-30T18:41:01.167Z,97806.53
2023-03-30T18:43:27.724Z,97818.03
2023-03-30T18:46:02.473Z,97801.19
2023-03-30T18:48:29.558Z,97790.69
2023-03-30T18:51:00.506Z,97795.66
2023-03-30T18:53:29.891Z,97796.88
2023-03-30T18:56:00.666Z,97802.22
2023-03-30T18:58:41.678Z,97799.94
2023-03-30T19:01:08.580Z,97807.13
2023-03-30T19:03:35.126Z,97813.28
2023-03-30T19:06:01.690Z,97815.13
2023-03-30T19:08:28.968Z,97811.19
2023-03-30T19:10:57.779Z,97808.13
2023-03-30T19:13:28.600Z,97806.69
2023-03-30T19:15:58.018Z,97813.47
2023-03-30T19:18:24.488Z,97813.84
2023-03-30T19:20:51.912Z,97817.34
2023-03-30T19:23:19.492Z,97807.09
2023-03-30T19:25:46.142Z,97798.88
2023-03-30T19:28:14.941Z,97791.28
2023-03-30T19:30:41.732Z,97792.28
2023-03-30T19:33:12.061Z,97794.34
2023-03-30T19:35:45.500Z,97797.84
2023-03-30T19:38:13.073Z,97799.69
2023-03-30T19:40:40.420Z,97798.66
2023-03-30T19:43:07.729Z,97794.53
2023-03-30T19:45:34.403Z,97793.34
2023-03-30T19:48:01.071Z,97774.25
2023-03-30T19:50:30.823Z,97773.66
2023-03-30T19:52:58.673Z,97755.34
2023-03-30T19:55:29.830Z,97756.38
2023-03-30T19:57:59.729Z,97744.25
2023-03-30T20:00:27.197Z,97754.72
2023-03-30T20:02:54.909Z,97761.28
2023-03-30T20:05:36.068Z,97749.38
2023-03-30T20:08:07.948Z,97760.47
2023-03-30T20:10:49.141Z,97750.00
2023-03-30T20:13:17.128Z,97750.00
2023-03-30T20:15:45.989Z,97754.09
2023-03-30T20:18:12.605Z,97754.09
2023-03-30T20:20:39.094Z,97764.56
2023-03-30T20:23:05.664Z,97765.16
2023-03-30T20:25:32.832Z,97760.22
2023-03-30T20:27:59.238Z,97754.03
2023-03-30T20:30:25.768Z,97745.81
2023-03-30T20:33:06.791Z,97736.56
2023-03-30T20:35:37.779Z,97731.00
2023-03-30T20:38:05.822Z,97725.03
2023-03-30T20:40:32.753Z,97708.88
2023-03-30T20:43:03.237Z,97718.28
2023-03-30T20:45:32.787Z,97715.56
2023-03-30T20:48:08.534Z,97706.47
2023-03-30T20:50:35.224Z,97712.22
2023-03-30T20:53:02.122Z,97714.03
2023-03-30T20:55:32.448Z,97733.94
2023-03-30T20:58:00.661Z,97748.28
2023-03-30T21:00:27.463Z,97746.59
2023-03-30T21:02:54.201Z,97735.47
2023-03-30T21:05:20.993Z,97737.00
2023-03-30T21:07:47.974Z,97728.81
2023-03-30T21:10:16.261Z,97718.56
2023-03-30T21:12:42.924Z,97706.28
2023-03-30T21:15:10.072Z,97693.16
2023-03-30T21:17:36.780Z,97692.16
2023-03-30T21:20:08.243Z,97688.69
2023-03-30T21:22:35.849Z,97701.41
2023-03-30T21:25:03.171Z,97698.69
2023-03-30T21:27:32.243Z,97700.28
2023-03-30T21:29:58.941Z,97679.13
2023-03-30T21:32:25.850Z,97680.78
2023-03-30T21:34:52.584Z,97679.13
2023-03-30T21:37:19.243Z,97675.19
2023-03-30T21:39:46.587Z,97684.81
2023-03-30T21:42:13.074Z,97675.41
2023-03-30T21:44:39.514Z,97673.34
2023-03-30T21:47:05.948Z,97670.88
2023-03-30T21:49:37.331Z,97669.44
2023-03-30T21:52:06.905Z,97669.72
2023-03-30T21:54:36.404Z,97666.47
2023-03-30T21:57:06.006Z,97653.81
2023-03-30T21:59:35.697Z,97656.66
2023-03-30T22:02:04.270Z,97657.66
2023-03-30T22:04:30.827Z,97650.25
2023-03-30T22:06:57.318Z,97637.81
2023-03-30T22:09:23.751Z,97624.91
2023-03-30T22:11:52.484Z,97639.66
2023-03-30T22:14:18.958Z,97635.72
2023-03-30T22:16:46.751Z,97655.38
2023-03-30T22:19:13.467Z,97637.94
2023-03-30T22:21:39.903Z,97646.31
2023-03-30T22:24:07.706Z,97627.25
2023-03-30T22:26:38.453Z,97637.97
2023-03-30T22:29:08.211Z,97622.59
2023-03-30T22:31:37.994Z,97584.94
2023-03-30T22:34:08.784Z,97582.44
2023-03-30T22:36:39.448Z,97591.88
2023-03-30T22:39:06.803Z,97575.88
2023-03-30T22:41:33.259Z,97575.28
2023-03-30T22:43:59.789Z,97578.41
2023-03-30T22:46:27.701Z,97568.91
2023-03-30T22:48:55.885Z,97562.78
2023-03-30T22:51:26.150Z,97554.78
2023-03-30T22:53:57.746Z,97535.28
2023-03-30T22:56:24.189Z,97523.63
2023-03-30T22:58:50.648Z,97520.94
2023-03-30T23:01:17.425Z,97499.41
2023-03-30T23:03:44.059Z,97493.09
2023-03-30T23:06:10.678Z,97484.06
2023-03-30T23:08:40.632Z,97482.22
2023-03-30T23:11:08.308Z,97476.25
2023-03-30T23:13:41.941Z,97476.91
2023-03-30T23:16:08.906Z,97467.44
2023-03-30T23:18:37.806Z,97458.22
2023-03-30T23:21:10.858Z,97443.84
2023-03-30T23:23:40.666Z,97448.59
2023-03-30T23:26:10.224Z,97435.66
2023-03-30T23:28:42.356Z,97427.88
2023-03-30T23:31:17.595Z,97426.59
2023-03-30T23:33:44.734Z,97409.00
2023-03-30T23:36:17.208Z,97436.66
2023-03-30T23:38:44.065Z,97410.44
2023-03-30T23:41:13.219Z,97430.31
2023-03-30T23:43:42.987Z,97429.91
2023-03-30T23:46:13.388Z,97418.25
2023-03-30T23:48:42.141Z,97406.34
2023-03-30T23:51:12.296Z,97399.75
2023-03-30T23:53:42.426Z,97395.88
2023-03-30T23:56:13.689Z,97395.84
2023-03-30T23:58:42.796Z,97368.22
